createdAt,value
2023-04-28T00:00:19.242Z,100883.13
2023-04-28T00:02:52.280Z,100880.24
2023-04-28T00:05:06.317Z,100879.39
2023-04-28T00:07:18.933Z,100879.05
2023-04-28T00:09:31.544Z,100878.52
2023-04-28T00:11:47.254Z,100874.67
2023-04-28T00:13:59.801Z,100874.63
2023-04-28T00:16:12.349Z,100871.86
2023-04-28T00:18:25.000Z,100877.54
2023-04-28T00:20:37.550Z,100872.91
2023-04-28T00:22:50.557Z,100872.80
2023-04-28T00:25:03.846Z,100869.38
2023-04-28T00:27:16.420Z,100865.78
2023-04-28T00:29:29.511Z,100863.33
2023-04-28T00:31:42.165Z,100865.04
2023-04-28T00:33:54.745Z,100867.61
2023-04-28T00:36:09.289Z,100866.72
2023-04-28T00:38:22.388Z,100866.05
2023-04-28T00:40:39.323Z,100862.30
2023-04-28T00:42:51.877Z,100858.18
2023-04-28T00:45:07.290Z,100862.70
2023-04-28T00:47:20.016Z,100863.76
2023-04-28T00:49:34.159Z,100862.79
2023-04-28T00:51:46.713Z,100855.57
2023-04-28T00:53:59.694Z,100851.55
2023-04-28T00:56:12.802Z,100852.04
2023-04-28T00:58:25.663Z,100848.77
2023-04-28T01:00:38.200Z,100845.64
2023-04-28T01:02:55.272Z,100844.73
2023-04-28T01:05:09.751Z,100846.92
2023-04-28T01:07:22.678Z,100846.39
2023-04-28T01:09:35.405Z,100844.10
2023-04-28T01:11:48.026Z,100842.77
2023-04-28T01:14:00.662Z,100842.23
2023-04-28T01:16:13.291Z,100836.84
2023-04-28T01:18:25.999Z,100836.62
2023-04-28T01:20:38.855Z,100834.69
2023-04-28T01:22:51.387Z,100832.80
2023-04-28T01:25:04.181Z,100835.64
2023-04-28T01:27:17.067Z,100832.38
2023-04-28T01:29:29.692Z,100833.70
2023-04-28T01:31:42.509Z,100829.37
2023-04-28T01:33:55.048Z,100827.12
2023-04-28T01:36:07.947Z,100822.98
2023-04-28T01:38:20.570Z,100826.07
2023-04-28T01:40:33.189Z,100825.89
2023-04-28T01:42:45.915Z,100826.55
2023-04-28T01:44:58.426Z,100823.94
2023-04-28T01:47:11.070Z,100820.80
2023-04-28T01:49:24.079Z,100818.86
2023-04-28T01:51:36.619Z,100818.48
2023-04-28T01:53:49.170Z,100815.55
2023-04-28T01:56:02.497Z,100815.02
2023-04-28T01:58:15.079Z,100816.08
2023-04-28T02:00:27.720Z,100818.66
2023-04-28T02:02:40.919Z,100819.49
2023-04-28T02:04:53.666Z,100817.55
2023-04-28T02:07:07.066Z,100818.98
2023-04-28T02:09:19.646Z,100817.79
2023-04-28T02:11:32.426Z,100812.59
2023-04-28T02:13:44.971Z,100815.50
2023-04-28T02:16:01.400Z,100809.11
2023-04-28T02:18:14.000Z,100811.84
2023-04-28T02:20:27.105Z,100811.66
2023-04-28T02:22:39.962Z,100807.69
2023-04-28T02:24:52.695Z,100806.26
2023-04-28T02:27:05.679Z,100808.66
2023-04-28T02:29:18.266Z,100804.89
2023-04-28T02:31:30.835Z,100806.60
2023-04-28T02:33:43.590Z,100801.09
2023-04-28T02:36:00.503Z,100796.67
2023-04-28T02:38:13.068Z,100800.70
2023-04-28T02:40:25.725Z,100797.14
2023-04-28T02:42:38.208Z,100796.27
2023-04-28T02:44:50.803Z,100795.41
2023-04-28T02:47:03.540Z,100796.90
2023-04-28T02:49:16.247Z,100795.95
2023-04-28T02:51:28.808Z,100796.48
2023-04-28T02:53:41.336Z,100797.51
2023-04-28T02:55:54.304Z,100795.62
2023-04-28T02:58:09.012Z,100792.55
2023-04-28T03:00:21.570Z,100796.92
2023-04-28T03:02:34.247Z,100795.73
2023-04-28T03:04:46.948Z,100797.23
2023-04-28T03:06:59.532Z,100792.02
2023-04-28T03:09:12.761Z,100788.09
2023-04-28T03:11:25.617Z,100788.98
2023-04-28T03:13:38.158Z,100786.95
2023-04-28T03:15:50.881Z,100791.95
2023-04-28T03:18:03.682Z,100785.77
2023-04-28T03:20:16.273Z,100787.27
2023-04-28T03:22:28.835Z,100786.69
2023-04-28T03:24:41.394Z,100786.16
2023-04-28T03:26:53.952Z,100784.62
2023-04-28T03:29:06.886Z,100780.36
2023-04-28T03:31:19.396Z,100783.95
2023-04-28T03:33:31.955Z,100782.38
2023-04-28T03:35:44.497Z,100780.48
2023-04-28T03:37:57.095Z,100782.05
2023-04-28T03:40:10.472Z,100786.86
2023-04-28T03:42:23.061Z,100792.16
2023-04-28T03:44:36.163Z,100795.59
2023-04-28T03:46:49.065Z,100796.11
2023-04-28T03:49:02.319Z,100797.33
2023-04-28T03:51:14.900Z,100796.63
2023-04-28T03:53:27.896Z,100793.52
2023-04-28T03:55:40.724Z,100793.35
2023-04-28T03:57:53.324Z,100791.77
2023-04-28T04:00:06.505Z,100788.28
2023-04-28T04:02:19.111Z,100790.16
2023-04-28T04:04:32.076Z,100789.08
2023-04-28T04:06:44.867Z,100784.39
2023-04-28T04:08:57.434Z,100783.86
2023-04-28T04:11:10.094Z,100780.17
2023-04-28T04:13:22.994Z,100779.30
2023-04-28T04:15:35.781Z,100779.66
2023-04-28T04:17:48.532Z,100779.40
2023-04-28T04:20:02.431Z,100781.91
2023-04-28T04:22:15.042Z,100784.56
2023-04-28T04:24:27.587Z,100788.91
2023-04-28T04:26:40.349Z,100784.64
2023-04-28T04:28:53.433Z,100782.62
2023-04-28T04:31:06.353Z,100783.23
2023-04-28T04:33:18.912Z,100776.95
2023-04-28T04:35:31.827Z,100776.23
2023-04-28T04:37:44.633Z,100774.11
2023-04-28T04:39:57.209Z,100770.54
2023-04-28T04:42:23.261Z,100772.88
2023-04-28T04:44:37.691Z,100768.13
2023-04-28T04:46:50.283Z,100768.27
2023-04-28T04:49:02.922Z,100764.55
2023-04-28T04:51:15.458Z,100763.77
2023-04-28T04:53:27.998Z,100764.91
2023-04-28T04:55:40.688Z,100762.79
2023-04-28T04:57:53.233Z,100759.95
2023-04-28T05:00:06.211Z,100757.11
2023-04-28T05:02:18.872Z,100759.66
2023-04-28T05:04:31.688Z,100759.73
2023-04-28T05:06:44.470Z,100760.05
2023-04-28T05:08:58.295Z,100763.39
2023-04-28T05:11:10.870Z,100761.86
2023-04-28T05:13:23.400Z,100760.40
2023-04-28T05:15:36.107Z,100758.65
2023-04-28T05:17:48.749Z,100756.93
2023-04-28T05:20:01.294Z,100758.17
2023-04-28T05:22:14.045Z,100754.06
2023-04-28T05:24:26.806Z,100754.65
2023-04-28T05:26:39.298Z,100755.89
2023-04-28T05:28:52.478Z,100756.25
2023-04-28T05:31:04.994Z,100755.75
2023-04-28T05:33:17.549Z,100752.27
2023-04-28T05:35:31.576Z,100748.95
2023-04-28T05:37:45.102Z,100751.95
2023-04-28T05:39:57.686Z,100756.20
2023-04-28T05:42:10.293Z,100754.45
2023-04-28T05:44:22.796Z,100753.16
2023-04-28T05:46:36.913Z,100754.80
2023-04-28T05:48:49.427Z,100756.89
2023-04-28T05:51:01.960Z,100752.25
2023-04-28T05:53:14.497Z,100746.46
2023-04-28T05:55:27.436Z,100741.02
2023-04-28T05:57:51.827Z,100735.16
2023-04-28T06:00:07.058Z,100737.72
2023-04-28T06:02:21.944Z,100738.32
2023-04-28T06:04:35.465Z,100741.31
2023-04-28T06:06:48.269Z,100740.52
2023-04-28T06:09:01.814Z,100740.63
2023-04-28T06:11:14.329Z,100737.02
2023-04-28T06:13:27.528Z,100735.25
2023-04-28T06:15:40.099Z,100731.92
2023-04-28T06:17:52.980Z,100731.40
2023-04-28T06:20:07.579Z,100724.72
2023-04-28T06:22:20.435Z,100724.36
2023-04-28T06:24:33.509Z,100721.20
2023-04-28T06:26:46.224Z,100724.84
2023-04-28T06:28:58.817Z,100728.28
2023-04-28T06:31:11.420Z,100727.85
2023-04-28T06:33:23.936Z,100727.22
2023-04-28T06:35:38.868Z,100727.53
2023-04-28T06:37:51.355Z,100719.41
2023-04-28T06:40:04.204Z,100719.05
2023-04-28T06:42:18.880Z,100719.04
2023-04-28T06:44:31.367Z,100714.60
2023-04-28T06:46:43.984Z,100711.64
2023-04-28T06:48:56.559Z,100710.23
2023-04-28T06:51:09.135Z,100710.86
2023-04-28T06:53:21.664Z,100709.84
2023-04-28T06:55:34.985Z,100709.79
2023-04-28T06:57:47.581Z,100707.67
2023-04-28T07:00:00.169Z,100707.02
2023-04-28T07:02:12.978Z,100704.55
2023-04-28T07:04:26.015Z,100703.48
2023-04-28T07:06:38.607Z,100699.47
2023-04-28T07:08:53.761Z,100693.74
2023-04-28T07:11:06.783Z,100693.02
2023-04-28T07:13:19.389Z,100693.92
2023-04-28T07:15:31.907Z,100688.13
2023-04-28T07:17:44.652Z,100684.59
2023-04-28T07:19:57.188Z,100680.23
2023-04-28T07:22:09.740Z,100682.66
2023-04-28T07:24:23.413Z,100681.04
2023-04-28T07:26:36.220Z,100675.02
2023-04-28T07:28:48.827Z,100672.74
2023-04-28T07:31:01.506Z,100671.06
2023-04-28T07:33:14.127Z,100668.15
2023-04-28T07:35:27.027Z,100667.25
2023-04-28T07:37:40.136Z,100662.68
2023-04-28T07:39:52.769Z,100663.38
2023-04-28T07:42:05.248Z,100656.85
2023-04-28T07:44:18.249Z,100652.33
2023-04-28T07:46:31.315Z,100653.26
2023-04-28T07:48:44.130Z,100647.78
2023-04-28T07:50:56.714Z,100642.94
2023-04-28T07:53:09.270Z,100640.37
2023-04-28T07:55:22.003Z,100637.65
2023-04-28T07:57:36.910Z,100635.09
2023-04-28T07:59:49.634Z,100633.34
2023-04-28T08:02:03.288Z,100629.24
2023-04-28T08:04:16.222Z,100626.16
2023-04-28T08:06:29.266Z,100623.58
2023-04-28T08:08:42.056Z,100625.98
2023-04-28T08:10:55.022Z,100624.54
2023-04-28T08:13:07.800Z,100623.77
2023-04-28T08:15:20.454Z,100623.30
2023-04-28T08:17:33.082Z,100620.17
2023-04-28T08:19:46.347Z,100621.27
2023-04-28T08:22:00.055Z,100618.86
2023-04-28T08:24:12.660Z,100616.64
2023-04-28T08:26:25.917Z,100607.63
2023-04-28T08:28:39.230Z,100606.52
2023-04-28T08:30:52.452Z,100610.70
2023-04-28T08:33:06.788Z,100613.30
2023-04-28T08:35:20.060Z,100605.07
2023-04-28T08:37:32.974Z,100601.05
2023-04-28T08:39:45.505Z,100597.11
2023-04-28T08:41:58.218Z,100596.54
2023-04-28T08:44:11.786Z,100586.51
2023-04-28T08:46:27.878Z,100581.22
2023-04-28T08:48:42.776Z,100578.92
2023-04-28T08:50:55.916Z,100576.33
2023-04-28T08:53:10.270Z,100578.44
2023-04-28T08:55:24.778Z,100575.92
2023-04-28T08:57:45.718Z,100572.77
2023-04-28T08:59:58.647Z,100569.03
2023-04-28T09:02:11.694Z,100570.26
2023-04-28T09:04:24.670Z,100565.41
2023-04-28T09:06:38.740Z,100563.63
2023-04-28T09:08:51.440Z,100565.34
2023-04-28T09:11:13.614Z,100561.66
2023-04-28T09:13:26.403Z,100563.55
2023-04-28T09:15:41.407Z,100562.13
2023-04-28T09:17:54.072Z,100558.83
2023-04-28T09:20:19.910Z,100552.39
2023-04-28T09:22:33.097Z,100549.38
2023-04-28T09:24:47.047Z,100549.47
2023-04-28T09:27:00.804Z,100547.19
2023-04-28T09:29:13.844Z,100546.61
2023-04-28T09:31:29.124Z,100545.25
2023-04-28T09:33:56.706Z,100533.64
2023-04-28T09:36:09.296Z,100530.37
2023-04-28T09:38:23.093Z,100526.13
2023-04-28T09:40:57.885Z,100524.80
2023-04-28T09:43:26.934Z,100522.61
2023-04-28T09:45:42.556Z,100517.89
2023-04-28T09:48:10.796Z,100518.23
2023-04-28T09:50:23.434Z,100510.13
2023-04-28T09:52:36.732Z,100509.28
2023-04-28T09:54:54.427Z,100508.89
2023-04-28T09:57:07.341Z,100508.42
2023-04-28T09:59:21.497Z,100507.59
2023-04-28T10:01:40.598Z,100503.19
2023-04-28T10:03:54.271Z,100500.40
2023-04-28T10:06:08.330Z,100496.29
2023-04-28T10:08:22.546Z,100488.38
2023-04-28T10:10:37.733Z,100488.04
2023-04-28T10:12:51.421Z,100478.71
2023-04-28T10:15:04.837Z,100469.73
2023-04-28T10:17:17.735Z,100463.31
2023-04-28T10:19:30.388Z,100460.10
2023-04-28T10:21:54.993Z,100460.73
2023-04-28T10:24:26.922Z,100459.27
2023-04-28T10:27:06.584Z,100458.36
2023-04-28T10:29:24.770Z,100452.24
2023-04-28T10:31:37.344Z,100448.69
2023-04-28T10:33:50.216Z,100439.53
2023-04-28T10:36:04.198Z,100435.34
2023-04-28T10:38:23.235Z,100428.65
2023-04-28T10:40:39.913Z,100433.70
2023-04-28T10:42:54.554Z,100429.04
2023-04-28T10:45:07.741Z,100440.02
2023-04-28T10:47:20.400Z,100428.27
2023-04-28T10:49:54.672Z,100425.40
2023-04-28T10:52:32.876Z,100423.26
2023-04-28T10:55:24.185Z,100422.67
2023-04-28T10:57:37.327Z,100412.70
2023-04-28T10:59:51.711Z,100416.51
2023-04-28T11:02:37.006Z,100410.95
2023-04-28T11:05:18.820Z,100406.70
2023-04-28T11:07:31.647Z,100408.65
2023-04-28T11:09:44.550Z,100406.59
2023-04-28T11:11:59.973Z,100408.89
2023-04-28T11:14:18.389Z,100408.96
2023-04-28T11:16:32.932Z,100410.25
2023-04-28T11:18:57.477Z,100404.73
2023-04-28T11:21:11.256Z,100400.41
2023-04-28T11:23:28.575Z,100403.38
2023-04-28T11:25:54.815Z,100395.17
2023-04-28T11:28:08.564Z,100394.82
2023-04-28T11:30:22.576Z,100395.63
2023-04-28T11:32:36.642Z,100381.98
2023-04-28T11:34:51.810Z,100379.59
2023-04-28T11:37:05.916Z,100378.46
2023-04-28T11:39:29.256Z,100372.07
2023-04-28T11:41:43.749Z,100373.23
2023-04-28T11:43:56.406Z,100368.41
2023-04-28T11:46:09.086Z,100369.38
2023-04-28T11:48:25.093Z,100366.33
2023-04-28T11:50:38.370Z,100365.33
2023-04-28T11:52:53.619Z,100356.07
2023-04-28T11:55:07.293Z,100362.55
2023-04-28T11:57:21.505Z,100357.09
2023-04-28T11:59:35.693Z,100351.55
2023-04-28T12:01:51.996Z,100355.70
2023-04-28T12:04:05.000Z,100354.42
2023-04-28T12:06:21.837Z,100354.45
2023-04-28T12:08:34.444Z,100357.27
2023-04-28T12:11:08.333Z,100352.64
2023-04-28T12:13:20.866Z,100359.04
2023-04-28T12:15:42.733Z,100350.85
2023-04-28T12:17:55.482Z,100354.06
2023-04-28T12:20:10.204Z,100356.05
2023-04-28T12:22:23.983Z,100351.19
2023-04-28T12:24:36.842Z,100351.46
2023-04-28T12:26:49.542Z,100349.69
2023-04-28T12:29:02.063Z,100346.96
2023-04-28T12:31:14.912Z,100339.31
2023-04-28T12:33:29.002Z,100338.19
2023-04-28T12:35:42.112Z,100334.58
2023-04-28T12:37:56.557Z,100333.11
2023-04-28T12:40:10.468Z,100326.65
2023-04-28T12:42:23.551Z,100326.67
2023-04-28T12:44:37.462Z,100328.21
2023-04-28T12:46:51.694Z,100320.84
2023-04-28T12:49:04.278Z,100316.09
2023-04-28T12:51:16.820Z,100310.23
2023-04-28T12:53:29.370Z,100303.16
2023-04-28T12:55:42.247Z,100304.32
2023-04-28T12:57:55.256Z,100303.21
2023-04-28T13:00:08.835Z,100308.17
2023-04-28T13:02:21.986Z,100297.52
2023-04-28T13:04:34.896Z,100295.34
2023-04-28T13:06:48.304Z,100293.40
2023-04-28T13:09:01.015Z,100289.16
2023-04-28T13:13:32.454Z,100290.98
2023-04-28T13:15:46.525Z,100285.70
2023-04-28T13:17:59.866Z,100277.09
2023-04-28T13:20:12.595Z,100278.60
2023-04-28T13:22:25.153Z,100286.20
2023-04-28T13:24:37.690Z,100275.32
2023-04-28T13:26:51.767Z,100272.35
2023-04-28T13:29:04.572Z,100272.88
2023-04-28T13:31:17.258Z,100272.69
2023-04-28T13:33:31.324Z,100269.01
2023-04-28T13:35:44.359Z,100273.67
2023-04-28T13:38:01.801Z,100267.98
2023-04-28T13:40:14.516Z,100268.47
2023-04-28T13:42:27.616Z,100271.89
2023-04-28T13:44:40.122Z,100270.06
2023-04-28T13:46:52.942Z,100273.88
2023-04-28T13:49:05.548Z,100272.48
2023-04-28T13:51:18.161Z,100265.36
2023-04-28T13:53:31.512Z,100262.65
2023-04-28T13:55:44.275Z,100259.48
2023-04-28T13:57:57.313Z,100258.23
2023-04-28T14:00:10.554Z,100255.45
2023-04-28T14:02:23.317Z,100256.71
2023-04-28T14:04:36.310Z,100256.14
2023-04-28T14:06:50.451Z,100255.71
2023-04-28T14:09:03.548Z,100259.23
2023-04-28T14:11:16.153Z,100253.41
2023-04-28T14:13:29.681Z,100247.02
2023-04-28T14:15:51.177Z,100243.10
2023-04-28T14:18:11.027Z,100234.77
2023-04-28T14:20:23.617Z,100234.75
2023-04-28T14:22:36.236Z,100229.44
2023-04-28T14:24:49.021Z,100227.05
2023-04-28T14:27:01.915Z,100227.17
2023-04-28T14:29:15.005Z,100228.33
2023-04-28T14:31:28.385Z,100226.06
2023-04-28T14:33:41.269Z,100223.73
2023-04-28T14:35:53.844Z,100224.11
2023-04-28T14:38:06.390Z,100218.77
2023-04-28T14:40:18.955Z,100219.58
2023-04-28T14:42:36.176Z,100219.39
2023-04-28T14:44:48.988Z,100223.28
2023-04-28T14:47:02.962Z,100220.72
2023-04-28T14:49:15.602Z,100217.25
2023-04-28T14:51:28.691Z,100218.44
2023-04-28T14:53:42.009Z,100214.92
2023-04-28T14:55:59.556Z,100213.66
2023-04-28T14:58:19.994Z,100209.80
2023-04-28T15:00:32.669Z,100203.79
2023-04-28T15:02:45.287Z,100203.71
2023-04-28T15:04:58.418Z,100199.28
2023-04-28T15:07:11.141Z,100197.85
2023-04-28T15:09:23.712Z,100195.04
2023-04-28T15:11:36.470Z,100190.05
2023-04-28T15:13:49.002Z,100191.93
2023-04-28T15:16:03.066Z,100190.77
2023-04-28T15:18:15.641Z,100186.98
2023-04-28T15:20:30.364Z,100183.59
2023-04-28T15:22:44.508Z,100182.35
2023-04-28T15:24:57.118Z,100181.89
2023-04-28T15:27:09.656Z,100177.92
2023-04-28T15:29:22.589Z,100171.98
2023-04-28T15:31:35.167Z,100175.67
2023-04-28T15:33:47.868Z,100176.27
2023-04-28T15:36:00.524Z,100172.13
2023-04-28T15:38:13.288Z,100169.06
2023-04-28T15:40:25.884Z,100168.70
2023-04-28T15:42:39.231Z,100168.17
2023-04-28T15:44:53.865Z,100170.45
2023-04-28T15:47:06.551Z,100168.55
2023-04-28T15:49:19.293Z,100170.02
2023-04-28T15:51:31.856Z,100170.98
2023-04-28T15:53:44.413Z,100165.86
2023-04-28T15:55:58.325Z,100167.52
2023-04-28T15:58:11.002Z,100164.44
2023-04-28T16:00:23.634Z,100161.20
2023-04-28T16:02:37.883Z,100157.53
2023-04-28T16:04:51.047Z,100160.81
2023-04-28T16:07:04.313Z,100155.50
2023-04-28T16:09:16.885Z,100160.13
2023-04-28T16:11:30.684Z,100167.13
2023-04-28T16:13:44.684Z,100155.10
2023-04-28T16:15:57.457Z,100158.89
2023-04-28T16:18:10.441Z,100159.06
2023-04-28T16:20:23.032Z,100154.75
2023-04-28T16:22:36.630Z,100154.85
2023-04-28T16:24:49.330Z,100152.48
2023-04-28T16:27:02.067Z,100153.79
2023-04-28T16:29:14.799Z,100151.86
2023-04-28T16:31:27.502Z,100151.55
2023-04-28T16:33:40.223Z,100151.92
2023-04-28T16:35:57.901Z,100149.79
2023-04-28T16:38:11.801Z,100149.72
2023-04-28T16:40:25.063Z,100148.80
2023-04-28T16:42:37.931Z,100142.30
2023-04-28T16:44:52.649Z,100142.32
2023-04-28T16:47:07.451Z,100142.41
2023-04-28T16:49:20.156Z,100139.60
2023-04-28T16:51:33.225Z,100140.25
2023-04-28T16:53:45.810Z,100136.95
2023-04-28T16:55:58.306Z,100136.18
2023-04-28T16:58:10.944Z,100135.02
2023-04-28T17:00:23.672Z,100135.30
2023-04-28T17:02:36.373Z,100132.23
2023-04-28T17:04:50.735Z,100129.96
2023-04-28T17:07:04.643Z,100130.80
2023-04-28T17:09:18.124Z,100132.77
2023-04-28T17:11:30.658Z,100131.45
2023-04-28T17:13:43.189Z,100127.14
2023-04-28T17:15:57.450Z,100127.16
2023-04-28T17:18:09.992Z,100127.55
2023-04-28T17:20:23.014Z,100126.59
2023-04-28T17:22:35.633Z,100121.12
2023-04-28T17:24:48.312Z,100121.19
2023-04-28T17:27:01.116Z,100121.00
2023-04-28T17:29:13.625Z,100120.46
2023-04-28T17:31:27.108Z,100118.66
2023-04-28T17:33:39.746Z,100114.39
2023-04-28T17:35:52.304Z,100111.48
2023-04-28T17:38:06.410Z,100112.04
2023-04-28T17:40:23.922Z,100109.08
2023-04-28T17:42:36.672Z,100109.14
2023-04-28T17:44:49.314Z,100103.73
2023-04-28T17:47:02.357Z,100105.02
2023-04-28T17:49:14.977Z,100109.69
2023-04-28T17:51:27.951Z,100112.09
2023-04-28T17:53:42.213Z,100114.19
2023-04-28T17:55:54.749Z,100120.31
2023-04-28T17:58:07.834Z,100121.77
2023-04-28T18:00:20.918Z,100120.64
2023-04-28T18:02:33.550Z,100124.33
2023-04-28T18:04:46.879Z,100126.77
2023-04-28T18:06:59.435Z,100125.10
2023-04-28T18:09:12.012Z,100125.81
2023-04-28T18:11:24.624Z,100120.45
2023-04-28T18:13:37.225Z,100123.30
2023-04-28T18:15:50.071Z,100123.55
2023-04-28T18:18:02.699Z,100123.73
2023-04-28T18:20:15.363Z,100124.75
2023-04-28T18:22:28.001Z,100127.58
2023-04-28T18:24:40.857Z,100125.58
2023-04-28T18:26:53.415Z,100125.55
2023-04-28T18:29:06.159Z,100125.88
2023-04-28T18:31:18.798Z,100125.98
2023-04-28T18:33:31.649Z,100126.69
2023-04-28T18:35:44.731Z,100128.77
2023-04-28T18:37:57.705Z,100130.82
2023-04-28T18:40:10.542Z,100130.25
2023-04-28T18:42:24.230Z,100129.95
2023-04-28T18:44:36.884Z,100129.79
2023-04-28T18:46:49.499Z,100130.00
2023-04-28T18:49:03.119Z,100130.57
2023-04-28T18:51:15.628Z,100130.06
2023-04-28T18:53:28.488Z,100130.52
2023-04-28T18:55:41.090Z,100129.11
2023-04-28T18:57:53.630Z,100132.55
2023-04-28T19:00:07.157Z,100133.31
2023-04-28T19:02:19.755Z,100133.08
2023-04-28T19:04:32.485Z,100130.44
2023-04-28T19:06:45.611Z,100128.59
2023-04-28T19:08:58.384Z,100126.69
2023-04-28T19:11:11.236Z,100127.45
2023-04-28T19:13:24.395Z,100129.38
2023-04-28T19:15:37.198Z,100126.67
2023-04-28T19:17:50.188Z,100124.45
2023-04-28T19:20:03.977Z,100128.41
2023-04-28T19:22:35.050Z,100124.75
2023-04-28T19:24:47.697Z,100127.35
2023-04-28T19:27:01.609Z,100127.70
2023-04-28T19:29:17.051Z,100128.77
2023-04-28T19:31:29.798Z,100120.85
2023-04-28T19:33:42.516Z,100120.45
2023-04-28T19:35:55.388Z,100118.64
2023-04-28T19:38:09.538Z,100122.11
2023-04-28T19:40:22.316Z,100124.11
2023-04-28T19:42:35.265Z,100123.17
2023-04-28T19:44:48.777Z,100121.50
2023-04-28T19:47:05.181Z,100124.47
2023-04-28T19:49:17.929Z,100124.44
2023-04-28T19:51:30.615Z,100128.73
2023-04-28T19:53:46.341Z,100129.72
2023-04-28T19:56:01.731Z,100131.13
2023-04-28T19:58:16.115Z,100132.11
2023-04-28T20:00:30.450Z,100130.67
2023-04-28T20:02:44.949Z,100131.34
2023-04-28T20:04:57.655Z,100135.88
2023-04-28T20:07:10.862Z,100137.48
2023-04-28T20:09:23.669Z,100133.65
2023-04-28T20:11:36.411Z,100142.75
2023-04-28T20:13:49.325Z,100143.19
2023-04-28T20:16:02.279Z,100140.23
2023-04-28T20:18:14.971Z,100142.69
2023-04-28T20:20:28.003Z,100138.87
2023-04-28T20:22:43.998Z,100135.56
2023-04-28T20:25:00.342Z,100136.46
2023-04-28T20:27:13.486Z,100134.34
2023-04-28T20:29:27.053Z,100133.05
2023-04-28T20:31:39.856Z,100131.95
2023-04-28T20:33:52.577Z,100132.48
2023-04-28T20:36:05.540Z,100135.63
2023-04-28T20:38:19.729Z,100134.73
2023-04-28T20:40:32.436Z,100131.39
2023-04-28T20:42:45.032Z,100132.79
2023-04-28T20:44:58.215Z,100136.40
2023-04-28T20:47:11.149Z,100133.76
2023-04-28T20:49:24.451Z,100134.45
2023-04-28T20:51:43.028Z,100130.33
2023-04-28T20:53:57.562Z,100123.84
2023-04-28T20:56:10.158Z,100118.83
2023-04-28T20:58:22.788Z,100119.09
2023-04-28T21:00:39.922Z,100112.75
2023-04-28T21:02:52.699Z,100108.71
2023-04-28T21:05:05.709Z,100110.64
2023-04-28T21:07:18.675Z,100110.29
2023-04-28T21:09:31.285Z,100112.62
2023-04-28T21:11:43.812Z,100118.10
2023-04-28T21:13:57.344Z,100115.89
2023-04-28T21:16:20.573Z,100113.52
2023-04-28T21:18:33.938Z,100113.22
2023-04-28T21:20:47.018Z,100109.99
2023-04-28T21:22:59.612Z,100108.92
2023-04-28T21:25:12.461Z,100105.98
2023-04-28T21:27:25.574Z,100106.56
2023-04-28T21:29:38.111Z,100108.25
2023-04-28T21:31:51.050Z,100110.30
2023-04-28T21:34:03.713Z,100105.75
2023-04-28T21:36:16.343Z,100104.04
2023-04-28T21:38:28.897Z,100104.79
2023-04-28T21:40:41.452Z,100103.86
2023-04-28T21:42:54.015Z,100103.99
2023-04-28T21:45:09.343Z,100101.85
2023-04-28T21:47:21.895Z,100101.55
2023-04-28T21:49:34.429Z,100098.35
2023-04-28T21:51:46.994Z,100101.14
2023-04-28T21:53:59.578Z,100097.88
2023-04-28T21:56:12.157Z,100098.27
2023-04-28T21:58:24.791Z,100097.20
2023-04-28T22:00:41.239Z,100096.20
2023-04-28T22:02:56.200Z,100096.95
2023-04-28T22:05:09.674Z,100092.09
2023-04-28T22:07:22.743Z,100092.02
2023-04-28T22:09:35.350Z,100091.49
2023-04-28T22:11:48.024Z,100094.20
2023-04-28T22:14:00.802Z,100091.82
2023-04-28T22:16:13.494Z,100091.50
2023-04-28T22:18:26.329Z,100086.33
2023-04-28T22:20:38.873Z,100083.02
2023-04-28T22:22:51.439Z,100085.30
2023-04-28T22:25:04.341Z,100079.91
2023-04-28T22:27:16.909Z,100078.09
2023-04-28T22:29:29.471Z,100074.87
2023-04-28T22:31:42.133Z,100077.86
2023-04-28T22:33:54.830Z,100075.98
2023-04-28T22:36:07.484Z,100074.19
2023-04-28T22:38:20.035Z,100072.05
2023-04-28T22:40:33.028Z,100071.98
2023-04-28T22:42:45.602Z,100073.23
2023-04-28T22:44:58.130Z,100071.66
2023-04-28T22:47:10.684Z,100064.55
2023-04-28T22:49:25.905Z,100060.20
2023-04-28T22:51:38.508Z,100055.11
2023-04-28T22:53:51.030Z,100055.23
2023-04-28T22:56:03.680Z,100055.45
2023-04-28T22:58:16.206Z,100056.49
2023-04-28T23:00:28.763Z,100063.45
2023-04-28T23:02:42.411Z,100062.80
2023-04-28T23:04:55.208Z,100061.55
2023-04-28T23:07:08.374Z,100062.69
2023-04-28T23:09:20.982Z,100060.91
2023-04-28T23:11:33.499Z,100059.16
2023-04-28T23:13:46.077Z,100060.27
2023-04-28T23:16:00.383Z,100061.08
2023-04-28T23:18:13.102Z,100060.59
2023-04-28T23:20:25.844Z,100058.61
2023-04-28T23:22:38.373Z,100059.36
2023-04-28T23:24:51.580Z,100059.73
2023-04-28T23:27:04.527Z,100055.83
2023-04-28T23:29:17.295Z,100056.56
2023-04-28T23:31:30.628Z,100049.56
2023-04-28T23:33:43.295Z,100047.79
2023-04-28T23:35:55.940Z,100045.73
2023-04-28T23:38:08.615Z,100040.55
2023-04-28T23:40:21.215Z,100035.46
2023-04-28T23:42:33.769Z,100029.63
2023-04-28T23:44:46.372Z,100033.81
2023-04-28T23:46:58.894Z,100029.83
2023-04-28T23:49:11.665Z,100025.33
2023-04-28T23:51:24.211Z,100021.34
2023-04-28T23:53:37.259Z,100020.14
2023-04-28T23:55:50.318Z,100015.10
2023-04-28T23:58:02.901Z,100014.84
